100LL.CA
Aviation Fuel Pricing for Canadians
Please upgrade your browser - Tested with IE9, FireFox, Chrome, Safari

Fuel Airports Other Help
Prices Economy Info List METAR/TAF Kneeboard Help

Reference Airport: DAUPHIN (LT. COL W.G. (BILLY) BARKER, VC), MB
N 51 06 05  W 100 03 12
Provinces to show:

CYDN DAUPHIN (LT. COL W.G. (BILLY) BARKER, VC), MB
WEATHER
METARCYDN 230300Z AUTO 07011KT 9SM -SN OVC035 M10/M13 A2995 RMK SLP167
TAFTAF CYDN 222342Z 2300/2312 06010KT P6SM SCT030 BKN120 TEMPO 2300/2303 BKN030 BKN120 FM230300 06012KT P6SM SCT015 BKN060 BKN100 TEMPO 2303/2312 2SM -SN BKN012 OVC060 RMK FCST BASED ON AUTO OBS. NXT FCST BY 230600Z
OTHER SITES

FlightAware

FltPlan

Google Maps

SkyVector
FUEL
FBO 100LL
member
100LL
public
JETA MOGAS
Opr (2023-06-25)2.5202.450
Canada Flight Supplement - CYDN
(opens in new tab/window)


Please Send Updates!

Desktop Version ]  [ Mobile Version ]  [ Disclaimer ]